createdAt,value
2023-01-20T00:01:52.632Z,9.20
2023-01-20T00:04:21.969Z,8.52
2023-01-20T00:06:52.016Z,8.25
2023-01-20T00:09:19.044Z,8.52
2023-01-20T00:12:32.669Z,11.93
2023-01-20T00:25:37.320Z,12.38
2023-01-20T00:28:05.057Z,12.70
2023-01-20T00:30:32.102Z,12.38
2023-01-20T00:33:04.075Z,12.73
2023-01-20T00:39:34.098Z,11.60
2023-01-20T00:42:02.754Z,13.38
2023-01-20T00:44:33.443Z,13.13
2023-01-20T00:47:02.738Z,12.63
2023-01-20T00:49:29.337Z,13.15
2023-01-20T00:51:55.916Z,13.57
2023-01-20T00:54:22.646Z,12.52
2023-01-20T00:56:49.218Z,12.70
2023-01-20T00:59:17.063Z,12.65
2023-01-20T01:06:00.421Z,12.95
2023-01-20T01:09:10.694Z,12.23
2023-01-20T01:12:16.948Z,12.10
2023-01-20T01:14:43.787Z,11.82
2023-01-20T01:17:10.270Z,11.65
2023-01-20T01:19:37.114Z,11.07
2023-01-20T01:22:03.628Z,11.45
2023-01-20T01:24:30.299Z,11.65
2023-01-20T01:26:57.047Z,11.95
2023-01-20T01:29:23.655Z,11.43
2023-01-20T01:31:50.196Z,11.85
2023-01-20T01:34:19.179Z,11.40
2023-01-20T01:36:45.933Z,11.07
2023-01-20T01:39:12.682Z,13.65
2023-01-20T01:41:39.345Z,11.88
2023-01-20T01:44:10.970Z,11.38
2023-01-20T01:46:38.127Z,12.48
2023-01-20T01:49:14.089Z,11.23
2023-01-20T01:51:50.112Z,11.13
2023-01-20T01:54:21.762Z,11.48
2023-01-20T01:56:49.621Z,11.77
2023-01-20T01:59:17.313Z,11.55
2023-01-20T02:01:46.361Z,11.30
2023-01-20T02:04:14.759Z,10.20
2023-01-20T02:06:43.679Z,9.65
2023-01-20T02:09:10.414Z,12.10
2023-01-20T02:11:39.371Z,10.82
2023-01-20T02:14:06.412Z,11.73
2023-01-20T02:16:38.347Z,10.50
2023-01-20T02:19:27.756Z,10.52
2023-01-20T02:21:57.291Z,10.98
2023-01-20T02:24:23.897Z,9.88
2023-01-20T02:27:08.541Z,9.95
2023-01-20T02:29:37.937Z,10.95
2023-01-20T02:32:04.690Z,10.38
2023-01-20T02:34:44.725Z,9.80
2023-01-20T02:37:14.077Z,9.80
2023-01-20T02:39:53.672Z,9.50
2023-01-20T02:42:25.732Z,9.25
2023-01-20T02:44:52.292Z,9.75
2023-01-20T02:47:24.815Z,8.88
2023-01-20T02:49:51.484Z,9.20
2023-01-20T02:52:32.874Z,9.30
2023-01-20T02:55:01.754Z,9.18
2023-01-20T02:57:31.251Z,9.35
2023-01-20T03:00:00.338Z,9.73
2023-01-20T03:02:28.047Z,8.95
2023-01-20T03:04:57.481Z,10.95
2023-01-20T03:07:26.028Z,9.07
2023-01-20T03:09:55.908Z,9.02
2023-01-20T03:12:25.830Z,9.10
2023-01-20T03:14:52.884Z,8.98
2023-01-20T03:17:20.154Z,8.50
2023-01-20T03:19:47.122Z,9.23
2023-01-20T03:22:13.836Z,8.57
2023-01-20T03:24:41.123Z,8.05
2023-01-20T03:27:07.838Z,7.63
2023-01-20T03:29:34.446Z,7.60
2023-01-20T03:32:02.363Z,6.45
2023-01-20T03:34:30.395Z,6.43
2023-01-20T03:36:57.591Z,6.72
2023-01-20T03:39:24.448Z,5.22
2023-01-20T03:42:07.452Z,5.32
2023-01-20T03:44:34.278Z,5.90
2023-01-20T03:47:00.884Z,5.78
2023-01-20T03:49:30.761Z,6.20
2023-01-20T03:52:06.480Z,5.90
2023-01-20T03:54:44.349Z,6.78
2023-01-20T03:57:13.592Z,7.38
2023-01-20T03:59:43.243Z,6.60
2023-01-20T04:02:10.603Z,5.70
2023-01-20T04:04:38.766Z,7.13
2023-01-20T04:07:06.885Z,6.50
2023-01-20T04:09:36.580Z,7.25
2023-01-20T04:12:03.753Z,6.32
2023-01-20T04:14:30.250Z,5.47
2023-01-20T04:16:57.925Z,6.60
2023-01-20T04:19:25.194Z,6.13
2023-01-20T04:22:05.260Z,5.78
2023-01-20T04:24:38.193Z,5.57
2023-01-20T04:27:04.838Z,5.35
2023-01-20T04:29:31.557Z,5.70
2023-01-20T04:32:01.989Z,5.05
2023-01-20T04:34:28.858Z,5.00
2023-01-20T04:36:55.700Z,4.90
2023-01-20T04:39:22.568Z,4.22
2023-01-20T04:41:49.227Z,4.80
2023-01-20T04:44:15.932Z,3.83
2023-01-20T04:46:42.633Z,4.38
2023-01-20T04:49:11.127Z,4.70
2023-01-20T04:51:37.840Z,4.10
2023-01-20T04:54:04.495Z,4.30
2023-01-20T04:56:31.032Z,5.18
2023-01-20T04:58:58.207Z,4.90
2023-01-20T05:01:24.746Z,4.82
2023-01-20T05:03:51.373Z,5.05
2023-01-20T05:06:19.128Z,4.78
2023-01-20T05:08:45.857Z,5.18
2023-01-20T05:11:12.451Z,5.20
2023-01-20T05:13:39.348Z,5.22
2023-01-20T05:16:07.095Z,6.07
2023-01-20T05:18:34.283Z,5.85
2023-01-20T05:21:00.750Z,6.60
2023-01-20T05:23:27.344Z,5.70
2023-01-20T05:25:53.966Z,5.68
2023-01-20T05:28:20.585Z,6.20
2023-01-20T05:30:48.618Z,6.10
2023-01-20T05:33:17.402Z,5.30
2023-01-20T05:35:44.087Z,5.80
2023-01-20T05:38:10.652Z,5.38
2023-01-20T05:40:37.298Z,6.72
2023-01-20T05:43:04.065Z,5.78
2023-01-20T05:45:31.220Z,5.97
2023-01-20T05:47:58.639Z,5.80
2023-01-20T05:50:26.482Z,5.57
2023-01-20T05:52:53.231Z,3.30
2023-01-20T05:55:32.606Z,3.10
2023-01-20T05:58:01.185Z,2.40
2023-01-20T06:00:27.721Z,2.97
2023-01-20T06:02:54.417Z,3.22
2023-01-20T06:05:21.116Z,2.55
2023-01-20T06:07:49.663Z,2.10
2023-01-20T06:10:16.871Z,2.88
2023-01-20T06:12:43.556Z,2.92
2023-01-20T06:15:10.647Z,2.28
2023-01-20T06:17:37.374Z,2.63
2023-01-20T06:20:05.661Z,3.42
2023-01-20T06:22:32.327Z,2.97
2023-01-20T06:24:58.868Z,2.42
2023-01-20T06:27:25.457Z,2.13
2023-01-20T06:29:52.130Z,2.38
2023-01-20T06:32:19.110Z,1.98
2023-01-20T06:34:46.156Z,2.17
2023-01-20T06:37:12.835Z,2.45
2023-01-20T06:39:40.548Z,2.10
2023-01-20T06:42:07.472Z,2.30
2023-01-20T06:44:34.724Z,2.20
2023-01-20T06:47:01.447Z,2.50
2023-01-20T06:49:28.020Z,2.20
2023-01-20T06:51:54.651Z,2.10
2023-01-20T06:54:21.366Z,1.70
2023-01-20T06:56:47.976Z,1.73
2023-01-20T06:59:14.652Z,2.00
2023-01-20T07:01:41.575Z,2.65
2023-01-20T07:04:09.465Z,2.70
2023-01-20T07:06:39.660Z,2.60
2023-01-20T07:09:07.553Z,3.08
2023-01-20T07:11:35.866Z,2.50
2023-01-20T07:14:03.013Z,2.38
2023-01-20T07:16:29.807Z,2.33
2023-01-20T07:18:56.480Z,2.60
2023-01-20T07:21:26.259Z,2.63
2023-01-20T07:23:53.564Z,2.40
2023-01-20T07:26:21.391Z,2.78
2023-01-20T07:28:48.741Z,2.30
2023-01-20T07:31:17.116Z,2.30
2023-01-20T07:33:43.782Z,2.10
2023-01-20T07:36:11.435Z,2.30
2023-01-20T07:38:38.731Z,2.35
2023-01-20T07:41:06.478Z,2.63
2023-01-20T07:43:33.446Z,3.17
2023-01-20T07:46:01.098Z,2.30
2023-01-20T07:48:28.518Z,2.80
2023-01-20T07:51:05.839Z,3.22
2023-01-20T07:53:33.570Z,2.25
2023-01-20T07:56:00.915Z,2.72
2023-01-20T07:58:28.344Z,2.20
2023-01-20T08:00:54.984Z,2.25
2023-01-20T08:03:21.855Z,2.55
2023-01-20T08:05:48.378Z,2.40
2023-01-20T08:08:15.212Z,2.10
2023-01-20T08:10:41.854Z,2.85
2023-01-20T08:13:08.533Z,2.10
2023-01-20T08:15:35.298Z,3.13
2023-01-20T08:18:01.870Z,2.58
2023-01-20T08:20:28.529Z,2.40
2023-01-20T08:22:55.642Z,2.20
2023-01-20T08:28:06.766Z,2.67
2023-01-20T08:30:33.369Z,2.70
2023-01-20T08:33:00.118Z,2.88
2023-01-20T08:35:27.016Z,2.17
2023-01-20T08:37:53.772Z,2.70
2023-01-20T08:40:20.544Z,1.90
2023-01-20T08:42:47.806Z,2.10
2023-01-20T08:45:15.016Z,2.17
2023-01-20T08:47:44.461Z,2.33
2023-01-20T08:50:12.329Z,2.10
2023-01-20T08:52:39.078Z,2.10
2023-01-20T08:55:05.951Z,2.70
2023-01-20T08:57:33.092Z,2.22
2023-01-20T09:00:00.488Z,2.30
2023-01-20T09:02:27.215Z,2.90
2023-01-20T09:04:54.757Z,2.42
2023-01-20T09:07:23.796Z,2.33
2023-01-20T09:09:50.550Z,2.00
2023-01-20T09:12:17.326Z,2.67
2023-01-20T09:14:44.086Z,2.47
2023-01-20T09:17:14.810Z,1.92
2023-01-20T09:19:41.575Z,2.28
2023-01-20T09:22:08.245Z,2.13
2023-01-20T09:24:35.006Z,2.20
2023-01-20T09:27:04.902Z,1.70
2023-01-20T09:29:31.900Z,2.03
2023-01-20T09:31:58.989Z,2.25
2023-01-20T09:34:27.518Z,3.17
2023-01-20T09:36:55.544Z,2.20
2023-01-20T09:39:41.224Z,2.08
2023-01-20T09:45:22.993Z,2.15
2023-01-20T09:47:50.158Z,2.45
2023-01-20T09:50:52.473Z,2.53
2023-01-20T09:53:32.771Z,1.90
2023-01-20T09:56:01.391Z,2.13
2023-01-20T09:58:32.636Z,2.40
2023-01-20T10:01:06.291Z,2.83
2023-01-20T10:03:40.888Z,1.95
2023-01-20T10:06:11.154Z,1.90
2023-01-20T10:08:59.622Z,2.45
2023-01-20T10:11:33.722Z,2.33
2023-01-20T10:14:08.577Z,2.10
2023-01-20T10:16:40.544Z,2.30
2023-01-20T10:19:19.653Z,1.92
2023-01-20T10:22:06.764Z,2.05
2023-01-20T10:24:37.980Z,2.38
2023-01-20T10:27:05.006Z,2.92
2023-01-20T10:29:35.784Z,2.22
2023-01-20T10:32:05.956Z,2.17
2023-01-20T10:34:36.794Z,2.72
2023-01-20T10:37:06.354Z,2.00
2023-01-20T10:39:35.962Z,2.20
2023-01-20T10:42:04.587Z,2.00
2023-01-20T10:44:33.763Z,2.35
2023-01-20T10:47:03.431Z,2.15
2023-01-20T10:49:39.105Z,1.73
2023-01-20T10:52:24.493Z,1.90
2023-01-20T10:54:59.974Z,1.63
2023-01-20T10:57:26.887Z,2.50
2023-01-20T10:59:55.080Z,2.00
2023-01-20T11:02:24.513Z,2.95
2023-01-20T11:05:01.247Z,2.13
2023-01-20T11:07:28.854Z,1.80
2023-01-20T11:09:55.645Z,2.28
2023-01-20T11:12:23.693Z,1.63
2023-01-20T11:14:50.987Z,2.67
2023-01-20T11:17:18.973Z,1.90
2023-01-20T11:19:55.536Z,1.73
2023-01-20T11:22:29.646Z,1.90
2023-01-20T11:24:59.000Z,1.95
2023-01-20T11:27:30.168Z,1.70
2023-01-20T11:29:59.326Z,1.70
2023-01-20T11:32:30.931Z,1.70
2023-01-20T11:34:57.918Z,2.20
2023-01-20T11:37:26.299Z,1.80
2023-01-20T11:39:55.875Z,1.77
2023-01-20T11:42:27.622Z,2.63
2023-01-20T11:45:01.061Z,1.38
2023-01-20T11:47:34.053Z,2.35
2023-01-20T11:50:06.786Z,1.80
2023-01-20T11:52:38.314Z,1.80
2023-01-20T11:55:17.167Z,2.90
2023-01-20T11:57:56.897Z,1.63
2023-01-20T12:00:26.282Z,1.42
2023-01-20T12:03:00.387Z,1.70
2023-01-20T12:05:44.299Z,1.92
2023-01-20T12:08:16.457Z,1.70
2023-01-20T12:10:43.426Z,1.67
2023-01-20T12:14:00.749Z,1.70
2023-01-20T12:16:28.860Z,2.55
2023-01-20T12:19:02.306Z,2.05
2023-01-20T12:21:34.768Z,1.80
2023-01-20T12:24:11.607Z,2.45
2023-01-20T12:26:38.397Z,2.00
2023-01-20T12:29:04.969Z,2.40
2023-01-20T12:31:32.033Z,1.75
2023-01-20T12:34:05.692Z,2.80
2023-01-20T12:36:41.446Z,2.28
2023-01-20T12:39:26.812Z,4.40
2023-01-20T12:44:23.662Z,2.35
2023-01-20T12:47:10.602Z,1.90
2023-01-20T12:50:00.194Z,3.50
2023-01-20T12:52:32.863Z,2.80
2023-01-20T12:55:04.955Z,3.65
2023-01-20T12:57:34.497Z,2.30
2023-01-20T13:00:15.473Z,2.53
2023-01-20T13:03:00.850Z,2.75
2023-01-20T13:05:27.439Z,2.70
2023-01-20T13:08:01.825Z,2.90
2023-01-20T13:10:51.234Z,2.35
2023-01-20T13:13:24.329Z,2.47
2023-01-20T13:15:56.543Z,2.50
2023-01-20T13:18:25.081Z,2.70
2023-01-20T13:20:52.850Z,2.33
2023-01-20T13:23:29.015Z,2.42
2023-01-20T13:25:56.066Z,2.15
2023-01-20T13:28:24.049Z,3.13
2023-01-20T13:30:54.037Z,2.63
2023-01-20T13:33:39.899Z,3.35
2023-01-20T13:36:14.232Z,2.17
2023-01-20T13:38:41.298Z,3.67
2023-01-20T13:41:08.728Z,2.85
2023-01-20T13:43:36.829Z,2.05
2023-01-20T13:46:03.498Z,2.35
2023-01-20T13:48:31.647Z,1.95
2023-01-20T13:51:16.875Z,1.90
2023-01-20T13:53:43.938Z,2.13
2023-01-20T13:56:27.019Z,1.70
2023-01-20T13:58:54.274Z,2.08
2023-01-20T14:01:21.010Z,2.42
2023-01-20T14:04:04.281Z,2.58
2023-01-20T14:06:33.209Z,4.72
2023-01-20T14:09:01.423Z,2.15
2023-01-20T14:11:29.064Z,2.00
2023-01-20T14:13:56.849Z,1.98
2023-01-20T14:16:27.870Z,2.28
2023-01-20T14:18:56.757Z,2.30
2023-01-20T14:21:24.495Z,2.45
2023-01-20T14:23:51.695Z,2.20
2023-01-20T14:26:23.712Z,2.20
2023-01-20T14:28:52.793Z,1.70
2023-01-20T14:31:25.882Z,2.13
2023-01-20T14:33:55.133Z,1.80
2023-01-20T14:36:22.412Z,2.17
2023-01-20T14:38:57.224Z,1.92
2023-01-20T14:41:35.144Z,2.08
2023-01-20T14:44:03.647Z,2.35
2023-01-20T14:46:31.770Z,2.45
2023-01-20T14:49:01.668Z,2.03
2023-01-20T14:51:28.567Z,2.72
2023-01-20T14:54:17.457Z,1.85
2023-01-20T14:56:47.697Z,2.03
2023-01-20T14:59:18.972Z,3.42
2023-01-20T15:01:50.748Z,2.30
2023-01-20T15:04:19.906Z,2.78
2023-01-20T15:06:53.559Z,3.78
2023-01-20T15:09:26.955Z,3.22
2023-01-20T15:12:13.473Z,3.42
2023-01-20T15:14:40.994Z,2.53
2023-01-20T15:17:08.844Z,3.67
2023-01-20T15:19:35.963Z,4.35
2023-01-20T15:22:19.755Z,5.72
2023-01-20T15:24:47.760Z,3.05
2023-01-20T15:27:28.524Z,4.50
2023-01-20T15:29:58.784Z,5.50
2023-01-20T15:32:25.509Z,3.78
2023-01-20T15:34:52.039Z,2.90
2023-01-20T15:37:19.272Z,2.03
2023-01-20T15:39:45.794Z,3.42
2023-01-20T15:42:13.236Z,3.05
2023-01-20T15:44:39.946Z,2.42
2023-01-20T15:47:31.434Z,1.52
2023-01-20T15:49:58.270Z,1.80
2023-01-20T15:52:24.802Z,2.08
2023-01-20T15:54:51.336Z,1.63
2023-01-20T15:57:18.234Z,1.85
2023-01-20T15:59:49.824Z,2.40
2023-01-20T16:02:20.268Z,1.67
2023-01-20T16:04:46.976Z,1.90
2023-01-20T16:07:14.949Z,1.90
2023-01-20T16:09:42.059Z,2.38
2023-01-20T16:12:11.197Z,2.97
2023-01-20T16:14:37.943Z,1.90
2023-01-20T16:17:04.679Z,1.83
2023-01-20T16:19:31.527Z,2.25
2023-01-20T16:21:58.273Z,1.70
2023-01-20T16:24:24.994Z,1.50
2023-01-20T16:26:51.533Z,1.27
2023-01-20T16:29:18.144Z,1.83
2023-01-20T16:31:44.885Z,1.60
2023-01-20T16:34:11.499Z,1.10
2023-01-20T16:36:38.112Z,2.00
2023-01-20T16:39:04.929Z,1.60
2023-01-20T16:41:31.666Z,1.25
2023-01-20T16:43:58.703Z,1.10
2023-01-20T16:46:27.172Z,1.90
2023-01-20T16:48:59.257Z,1.90
2023-01-20T16:51:26.575Z,4.28
2023-01-20T16:53:53.651Z,9.98
2023-01-20T16:56:21.442Z,15.15
2023-01-20T16:58:48.678Z,15.32
2023-01-20T17:01:20.861Z,13.80
2023-01-20T17:03:48.012Z,18.13
2023-01-20T17:06:17.617Z,13.75
2023-01-20T17:08:48.610Z,4.22
2023-01-20T17:11:24.433Z,2.05
2023-01-20T17:13:51.821Z,1.75
2023-01-20T17:16:18.655Z,1.65
2023-01-20T17:18:48.365Z,1.77
2023-01-20T17:21:15.401Z,1.60
2023-01-20T17:23:42.088Z,1.27
2023-01-20T17:26:09.221Z,1.65
2023-01-20T17:28:35.899Z,1.02
2023-01-20T17:31:02.997Z,1.40
2023-01-20T17:33:29.864Z,1.90
2023-01-20T17:36:00.172Z,1.33
2023-01-20T17:38:30.624Z,1.10
2023-01-20T17:41:04.248Z,1.40
2023-01-20T17:43:34.422Z,1.50
2023-01-20T17:46:01.447Z,1.73
2023-01-20T17:48:28.078Z,1.60
2023-01-20T17:50:59.402Z,2.00
2023-01-20T17:53:26.885Z,1.65
2023-01-20T17:56:06.794Z,2.45
2023-01-20T17:58:38.391Z,1.98
2023-01-20T18:01:14.388Z,2.30
2023-01-20T18:03:42.955Z,1.98
2023-01-20T18:06:11.030Z,2.65
2023-01-20T18:08:38.573Z,3.00
2023-01-20T18:11:06.646Z,4.82
2023-01-20T18:13:33.419Z,5.10
2023-01-20T18:16:04.372Z,4.82
2023-01-20T18:18:32.141Z,5.38
2023-01-20T18:21:09.381Z,5.95
2023-01-20T18:23:38.978Z,5.95
2023-01-20T18:26:06.467Z,6.72
2023-01-20T18:28:33.765Z,5.35
2023-01-20T18:31:08.622Z,5.00
2023-01-20T18:33:38.718Z,6.05
2023-01-20T18:36:06.331Z,5.85
2023-01-20T18:38:33.365Z,5.65
2023-01-20T18:41:03.549Z,5.05
2023-01-20T18:43:30.309Z,6.25
2023-01-20T18:45:57.187Z,6.10
2023-01-20T18:48:25.457Z,6.65
2023-01-20T18:50:53.021Z,6.43
2023-01-20T18:53:19.636Z,6.95
2023-01-20T18:55:46.330Z,7.07
2023-01-20T18:58:16.448Z,7.97
2023-01-20T19:00:43.695Z,7.80
2023-01-20T19:03:10.695Z,8.05
2023-01-20T19:05:37.429Z,8.35
2023-01-20T19:08:05.090Z,8.18
2023-01-20T19:10:32.033Z,9.35
2023-01-20T19:12:58.569Z,10.00
2023-01-20T19:15:25.298Z,9.77
2023-01-20T19:17:52.549Z,9.98
2023-01-20T19:20:19.168Z,10.10
2023-01-20T19:22:45.793Z,9.55
2023-01-20T19:25:12.583Z,10.65
2023-01-20T19:27:39.178Z,10.38
2023-01-20T19:30:06.154Z,10.77
2023-01-20T19:32:32.812Z,9.90
2023-01-20T19:34:59.429Z,9.10
2023-01-20T19:37:26.197Z,8.75
2023-01-20T19:39:52.806Z,9.25
2023-01-20T19:42:19.501Z,8.50
2023-01-20T19:44:46.518Z,9.32
2023-01-20T19:47:13.029Z,9.45
2023-01-20T19:49:39.715Z,9.73
2023-01-20T19:52:06.664Z,8.98
2023-01-20T19:54:33.712Z,9.30
2023-01-20T19:57:00.366Z,8.70
2023-01-20T19:59:27.094Z,8.95
2023-01-20T20:01:53.760Z,8.48
2023-01-20T20:04:20.868Z,8.73
2023-01-20T20:06:48.784Z,8.90
2023-01-20T20:09:17.441Z,8.57
2023-01-20T20:11:44.287Z,9.35
2023-01-20T20:14:13.308Z,9.48
2023-01-20T20:16:40.018Z,9.45
2023-01-20T20:19:07.278Z,8.98
2023-01-20T20:21:34.196Z,9.60
2023-01-20T20:24:01.636Z,9.63
2023-01-20T20:26:29.871Z,9.68
2023-01-20T20:28:58.049Z,8.30
2023-01-20T20:31:29.440Z,8.55
2023-01-20T20:34:00.495Z,9.73
2023-01-20T20:36:32.226Z,8.65
2023-01-20T20:38:59.446Z,9.32
2023-01-20T20:41:28.939Z,9.45
2023-01-20T20:43:56.917Z,9.65
2023-01-20T20:46:23.936Z,9.80
2023-01-20T20:48:53.456Z,9.90
2023-01-20T20:51:20.201Z,9.90
2023-01-20T20:53:46.744Z,10.27
2023-01-20T20:56:14.483Z,11.45
2023-01-20T20:58:55.515Z,11.02
2023-01-20T21:01:27.640Z,10.90
2023-01-20T21:03:56.691Z,11.88
2023-01-20T21:06:23.790Z,10.13
2023-01-20T21:08:50.491Z,10.10
2023-01-20T21:11:17.312Z,11.52
2023-01-20T21:13:44.463Z,11.32
2023-01-20T21:16:14.065Z,11.85
2023-01-20T21:18:41.905Z,10.07
2023-01-20T21:21:11.216Z,10.70
2023-01-20T21:23:38.796Z,8.77
2023-01-20T21:26:06.732Z,9.23
2023-01-20T21:28:35.570Z,10.40
2023-01-20T21:31:09.731Z,10.23
2023-01-20T21:33:39.895Z,10.75
2023-01-20T21:36:08.879Z,10.85
2023-01-20T21:38:36.565Z,10.77
2023-01-20T21:41:04.364Z,11.15
2023-01-20T21:43:53.026Z,10.90
2023-01-20T21:46:20.463Z,11.85
2023-01-20T21:49:05.765Z,11.82
2023-01-20T21:51:51.125Z,11.15
2023-01-20T21:56:44.538Z,11.38
2023-01-20T21:59:11.422Z,11.57
2023-01-20T22:01:38.309Z,12.70
2023-01-20T22:04:05.254Z,12.95
2023-01-20T22:06:31.804Z,12.63
2023-01-20T22:08:59.803Z,13.63
2023-01-20T22:11:26.960Z,12.65
2023-01-20T22:13:56.812Z,13.18
2023-01-20T22:16:24.074Z,12.52
2023-01-20T22:18:51.163Z,13.18
2023-01-20T22:21:18.245Z,13.10
2023-01-20T22:23:45.369Z,13.18
2023-01-20T22:26:12.060Z,12.68
2023-01-20T22:28:41.325Z,13.48
2023-01-20T22:31:08.932Z,12.70
2023-01-20T22:33:35.692Z,13.88
2023-01-20T22:36:03.131Z,15.13
2023-01-20T22:38:30.027Z,14.48
2023-01-20T22:41:02.280Z,15.27
2023-01-20T22:43:29.152Z,14.80
2023-01-20T22:45:59.715Z,16.60
2023-01-20T22:48:26.844Z,16.20
2023-01-20T22:50:54.620Z,17.17
2023-01-20T22:53:21.489Z,14.98
2023-01-20T22:56:00.352Z,15.43
2023-01-20T22:58:27.476Z,16.30
2023-01-20T23:00:54.218Z,16.33
2023-01-20T23:03:20.956Z,16.35
2023-01-20T23:05:51.879Z,16.70
2023-01-20T23:08:18.764Z,16.85
2023-01-20T23:10:48.148Z,18.15
2023-01-20T23:13:15.827Z,16.50
2023-01-20T23:15:42.490Z,17.67
2023-01-20T23:18:09.738Z,17.48
2023-01-20T23:20:36.595Z,17.17
2023-01-20T23:23:03.231Z,17.20
2023-01-20T23:25:30.082Z,18.10
2023-01-20T23:27:56.721Z,17.25
2023-01-20T23:30:23.177Z,17.65
2023-01-20T23:32:49.756Z,16.73
2023-01-20T23:35:16.466Z,17.73
2023-01-20T23:37:43.120Z,17.42
2023-01-20T23:40:10.137Z,17.98
2023-01-20T23:42:36.677Z,16.85
2023-01-20T23:45:03.301Z,16.92
2023-01-20T23:47:29.915Z,17.50
2023-01-20T23:49:56.494Z,16.83
2023-01-20T23:52:24.925Z,18.33
2023-01-20T23:54:52.553Z,17.75
2023-01-20T23:57:19.663Z,19.00
2023-01-20T23:59:46.476Z,17.52
